sensor_id;sensor_type;location;lat;lon;timestamp;P1;durP1;ratioP1;P2;durP2;ratioP2
46607;SDS011;32330;51.936;7.184;2023-06-10T03:46:15;8.43;;;4.40;;
46607;SDS011;32330;51.936;7.184;2023-06-10T03:48:43;8.95;;;5.30;;
46607;SDS011;32330;51.936;7.184;2023-06-10T03:51:10;8.85;;;5.25;;
46607;SDS011;32330;51.936;7.184;2023-06-10T03:53:38;9.60;;;5.47;;
46607;SDS011;32330;51.936;7.184;2023-06-10T03:56:05;7.18;;;5.18;;
46607;SDS011;32330;51.936;7.184;2023-06-10T03:58:32;7.55;;;4.70;;
46607;SDS011;32330;51.936;7.184;2023-06-10T04:00:59;7.50;;;4.90;;
46607;SDS011;32330;51.936;7.184;2023-06-10T04:03:34;6.40;;;4.35;;
46607;SDS011;32330;51.936;7.184;2023-06-10T04:06:00;7.68;;;4.60;;
46607;SDS011;32330;51.936;7.184;2023-06-10T04:08:28;8.45;;;5.10;;
46607;SDS011;32330;51.936;7.184;2023-06-10T04:10:55;5.85;;;4.47;;
46607;SDS011;32330;51.936;7.184;2023-06-10T04:13:22;6.57;;;4.40;;
46607;SDS011;32330;51.936;7.184;2023-06-10T04:15:53;6.75;;;5.38;;
46607;SDS011;32330;51.936;7.184;2023-06-10T04:18:20;8.70;;;5.82;;
46607;SDS011;32330;51.936;7.184;2023-06-10T04:20:50;8.23;;;5.13;;
46607;SDS011;32330;51.936;7.184;2023-06-10T04:23:17;7.13;;;4.47;;
46607;SDS011;32330;51.936;7.184;2023-06-10T04:25:45;10.60;;;5.40;;
46607;SDS011;32330;51.936;7.184;2023-06-10T04:28:13;6.90;;;5.43;;
46607;SDS011;32330;51.936;7.184;2023-06-10T04:30:41;8.60;;;4.93;;
46607;SDS011;32330;51.936;7.184;2023-06-10T04:33:11;7.55;;;4.95;;
46607;SDS011;32330;51.936;7.184;2023-06-10T04:35:39;6.47;;;4.75;;
46607;SDS011;32330;51.936;7.184;2023-06-10T04:38:09;6.40;;;4.68;;
46607;SDS011;32330;51.936;7.184;2023-06-10T04:40:36;6.82;;;4.50;;
46607;SDS011;32330;51.936;7.184;2023-06-10T04:43:04;6.82;;;4.85;;
46607;SDS011;32330;51.936;7.184;2023-06-10T04:45:32;7.63;;;4.85;;
46607;SDS011;32330;51.936;7.184;2023-06-10T04:47:59;7.10;;;4.68;;
46607;SDS011;32330;51.936;7.184;2023-06-10T04:50:26;7.75;;;5.10;;
46607;SDS011;32330;51.936;7.184;2023-06-10T04:52:53;8.18;;;5.22;;
46607;SDS011;32330;51.936;7.184;2023-06-10T04:55:23;9.98;;;5.03;;
46607;SDS011;32330;51.936;7.184;2023-06-10T04:57:50;8.65;;;5.28;;
46607;SDS011;32330;51.936;7.184;2023-06-10T05:00:17;7.22;;;4.68;;
46607;SDS011;32330;51.936;7.184;2023-06-10T05:02:44;7.07;;;4.82;;
46607;SDS011;32330;51.936;7.184;2023-06-10T05:05:14;8.52;;;4.88;;
46607;SDS011;32330;51.936;7.184;2023-06-10T05:07:42;6.22;;;4.75;;
46607;SDS011;32330;51.936;7.184;2023-06-10T05:10:09;7.95;;;4.53;;
46607;SDS011;32330;51.936;7.184;2023-06-10T05:12:38;6.13;;;4.38;;
46607;SDS011;32330;51.936;7.184;2023-06-10T05:15:06;6.88;;;4.70;;
46607;SDS011;32330;51.936;7.184;2023-06-10T05:17:34;7.20;;;5.38;;
46607;SDS011;32330;51.936;7.184;2023-06-10T05:20:01;6.45;;;4.43;;
46607;SDS011;32330;51.936;7.184;2023-06-10T05:22:28;6.80;;;5.05;;
46607;SDS011;32330;51.936;7.184;2023-06-10T05:24:55;7.45;;;4.68;;
46607;SDS011;32330;51.936;7.184;2023-06-10T05:27:22;9.40;;;4.85;;
46607;SDS011;32330;51.936;7.184;2023-06-10T05:29:51;5.65;;;4.03;;
46607;SDS011;32330;51.936;7.184;2023-06-10T05:32:17;10.73;;;4.20;;
46607;SDS011;32330;51.936;7.184;2023-06-10T05:34:44;6.55;;;4.10;;
46607;SDS011;32330;51.936;7.184;2023-06-10T05:37:12;6.40;;;4.40;;
46607;SDS011;32330;51.936;7.184;2023-06-10T05:39:39;6.32;;;4.47;;
46607;SDS011;32330;51.936;7.184;2023-06-10T05:42:06;9.45;;;4.72;;
46607;SDS011;32330;51.936;7.184;2023-06-10T05:44:34;8.35;;;4.68;;
46607;SDS011;32330;51.936;7.184;2023-06-10T05:47:03;6.05;;;4.05;;
46607;SDS011;32330;51.936;7.184;2023-06-10T05:49:31;6.53;;;3.65;;
46607;SDS011;32330;51.936;7.184;2023-06-10T05:51:58;8.07;;;4.45;;
46607;SDS011;32330;51.936;7.184;2023-06-10T05:54:25;5.22;;;3.47;;
46607;SDS011;32330;51.936;7.184;2023-06-10T05:56:52;6.65;;;3.85;;
46607;SDS011;32330;51.936;7.184;2023-06-10T05:59:19;6.03;;;3.80;;
46607;SDS011;32330;51.936;7.184;2023-06-10T06:01:48;7.63;;;4.55;;
46607;SDS011;32330;51.936;7.184;2023-06-10T06:04:16;6.22;;;3.40;;
46607;SDS011;32330;51.936;7.184;2023-06-10T06:06:43;4.80;;;3.83;;
46607;SDS011;32330;51.936;7.184;2023-06-10T06:09:10;9.13;;;4.35;;
46607;SDS011;32330;51.936;7.184;2023-06-10T06:11:38;6.20;;;3.72;;
46607;SDS011;32330;51.936;7.184;2023-06-10T06:14:05;7.55;;;4.35;;
46607;SDS011;32330;51.936;7.184;2023-06-10T06:16:32;5.40;;;3.35;;
46607;SDS011;32330;51.936;7.184;2023-06-10T06:18:59;4.50;;;3.53;;
46607;SDS011;32330;51.936;7.184;2023-06-10T06:21:27;5.20;;;3.60;;
46607;SDS011;32330;51.936;7.184;2023-06-10T06:23:54;6.43;;;4.25;;
46607;SDS011;32330;51.936;7.184;2023-06-10T06:26:21;5.00;;;3.75;;
46607;SDS011;32330;51.936;7.184;2023-06-10T06:28:48;4.68;;;3.70;;
46607;SDS011;32330;51.936;7.184;2023-06-10T06:31:15;5.05;;;3.50;;
46607;SDS011;32330;51.936;7.184;2023-06-10T06:33:42;4.72;;;3.45;;
46607;SDS011;32330;51.936;7.184;2023-06-10T06:36:09;6.68;;;3.83;;
46607;SDS011;32330;51.936;7.184;2023-06-10T06:38:37;5.60;;;3.97;;
46607;SDS011;32330;51.936;7.184;2023-06-10T06:41:04;5.60;;;3.47;;
46607;SDS011;32330;51.936;7.184;2023-06-10T06:43:31;7.28;;;4.13;;
46607;SDS011;32330;51.936;7.184;2023-06-10T06:46:07;4.93;;;3.17;;
46607;SDS011;32330;51.936;7.184;2023-06-10T06:48:34;7.50;;;3.85;;
46607;SDS011;32330;51.936;7.184;2023-06-10T06:51:01;4.90;;;3.28;;
46607;SDS011;32330;51.936;7.184;2023-06-10T06:53:28;7.60;;;3.30;;
46607;SDS011;32330;51.936;7.184;2023-06-10T06:55:56;6.32;;;3.40;;
46607;SDS011;32330;51.936;7.184;2023-06-10T06:58:23;6.03;;;3.10;;
46607;SDS011;32330;51.936;7.184;2023-06-10T07:00:50;6.15;;;3.45;;
46607;SDS011;32330;51.936;7.184;2023-06-10T07:03:19;5.95;;;3.88;;
46607;SDS011;32330;51.936;7.184;2023-06-10T07:05:46;4.70;;;3.33;;
46607;SDS011;32330;51.936;7.184;2023-06-10T07:08:13;5.22;;;3.00;;
46607;SDS011;32330;51.936;7.184;2023-06-10T07:10:41;5.57;;;3.13;;
46607;SDS011;32330;51.936;7.184;2023-06-10T07:13:09;6.55;;;3.30;;
46607;SDS011;32330;51.936;7.184;2023-06-10T07:15:38;6.60;;;3.65;;
46607;SDS011;32330;51.936;7.184;2023-06-10T07:18:05;5.25;;;4.13;;
46607;SDS011;32330;51.936;7.184;2023-06-10T07:20:32;5.63;;;3.75;;
46607;SDS011;32330;51.936;7.184;2023-06-10T07:22:59;6.88;;;3.33;;
46607;SDS011;32330;51.936;7.184;2023-06-10T07:25:29;10.48;;;3.92;;
46607;SDS011;32330;51.936;7.184;2023-06-10T07:27:56;4.20;;;3.03;;
46607;SDS011;32330;51.936;7.184;2023-06-10T07:30:24;5.30;;;3.00;;
46607;SDS011;32330;51.936;7.184;2023-06-10T07:32:51;8.95;;;3.53;;
46607;SDS011;32330;51.936;7.184;2023-06-10T07:35:19;7.13;;;4.07;;
46607;SDS011;32330;51.936;7.184;2023-06-10T07:37:46;4.97;;;3.42;;
46607;SDS011;32330;51.936;7.184;2023-06-10T07:40:13;7.38;;;3.67;;
46607;SDS011;32330;51.936;7.184;2023-06-10T07:42:40;4.25;;;3.25;;
46607;SDS011;32330;51.936;7.184;2023-06-10T07:45:08;5.28;;;3.88;;
46607;SDS011;32330;51.936;7.184;2023-06-10T07:47:37;6.88;;;3.78;;
46607;SDS011;32330;51.936;7.184;2023-06-10T07:50:04;6.43;;;3.30;;
46607;SDS011;32330;51.936;7.184;2023-06-10T07:52:32;4.47;;;3.22;;
46607;SDS011;32330;51.936;7.184;2023-06-10T07:54:59;6.35;;;3.05;;
46607;SDS011;32330;51.936;7.184;2023-06-10T07:57:26;5.53;;;3.25;;
46607;SDS011;32330;51.936;7.184;2023-06-10T07:59:53;9.30;;;2.80;;
46607;SDS011;32330;51.936;7.184;2023-06-10T08:02:22;5.78;;;3.17;;
46607;SDS011;32330;51.936;7.184;2023-06-10T08:04:51;6.13;;;3.30;;
46607;SDS011;32330;51.936;7.184;2023-06-10T08:07:18;5.18;;;3.53;;
46607;SDS011;32330;51.936;7.184;2023-06-10T08:09:45;5.88;;;2.95;;
46607;SDS011;32330;51.936;7.184;2023-06-10T08:12:12;5.75;;;3.53;;
46607;SDS011;32330;51.936;7.184;2023-06-10T08:14:43;7.82;;;2.80;;
46607;SDS011;32330;51.936;7.184;2023-06-10T08:17:10;3.92;;;2.95;;
46607;SDS011;32330;51.936;7.184;2023-06-10T08:19:37;5.88;;;3.40;;
46607;SDS011;32330;51.936;7.184;2023-06-10T08:22:06;7.43;;;3.00;;
46607;SDS011;32330;51.936;7.184;2023-06-10T08:24:33;4.50;;;2.88;;
46607;SDS011;32330;51.936;7.184;2023-06-10T08:27:00;6.75;;;3.30;;
46607;SDS011;32330;51.936;7.184;2023-06-10T08:29:27;5.10;;;3.45;;
46607;SDS011;32330;51.936;7.184;2023-06-10T08:31:55;5.55;;;3.03;;
46607;SDS011;32330;51.936;7.184;2023-06-10T08:34:22;4.65;;;2.78;;
46607;SDS011;32330;51.936;7.184;2023-06-10T08:36:49;4.68;;;3.05;;
46607;SDS011;32330;51.936;7.184;2023-06-10T08:39:19;5.50;;;2.85;;
46607;SDS011;32330;51.936;7.184;2023-06-10T08:41:48;4.10;;;2.75;;
46607;SDS011;32330;51.936;7.184;2023-06-10T08:44:25;5.05;;;3.25;;
46607;SDS011;32330;51.936;7.184;2023-06-10T08:46:55;5.28;;;2.97;;
46607;SDS011;32330;51.936;7.184;2023-06-10T08:49:26;6.93;;;3.22;;
46607;SDS011;32330;51.936;7.184;2023-06-10T08:51:58;6.97;;;3.30;;
46607;SDS011;32330;51.936;7.184;2023-06-10T08:54:28;4.63;;;3.22;;
46607;SDS011;32330;51.936;7.184;2023-06-10T08:56:59;3.75;;;3.17;;
46607;SDS011;32330;51.936;7.184;2023-06-10T08:59:31;5.18;;;3.33;;
46607;SDS011;32330;51.936;7.184;2023-06-10T09:01:58;4.10;;;3.20;;
46607;SDS011;32330;51.936;7.184;2023-06-10T09:04:27;5.30;;;3.40;;
46607;SDS011;32330;51.936;7.184;2023-06-10T09:06:54;5.93;;;3.08;;
46607;SDS011;32330;51.936;7.184;2023-06-10T09:09:23;4.20;;;3.00;;
46607;SDS011;32330;51.936;7.184;2023-06-10T09:11:53;4.22;;;3.15;;
46607;SDS011;32330;51.936;7.184;2023-06-10T09:14:20;5.18;;;3.25;;
46607;SDS011;32330;51.936;7.184;2023-06-10T09:16:47;5.97;;;3.10;;
46607;SDS011;32330;51.936;7.184;2023-06-10T09:19:15;7.00;;;3.28;;
46607;SDS011;32330;51.936;7.184;2023-06-10T09:21:43;4.57;;;3.03;;
46607;SDS011;32330;51.936;7.184;2023-06-10T09:24:10;4.47;;;3.08;;
46607;SDS011;32330;51.936;7.184;2023-06-10T09:26:37;5.93;;;3.85;;
46607;SDS011;32330;51.936;7.184;2023-06-10T09:29:06;4.40;;;3.15;;
46607;SDS011;32330;51.936;7.184;2023-06-10T09:31:34;3.88;;;2.75;;
46607;SDS011;32330;51.936;7.184;2023-06-10T09:34:06;4.40;;;2.90;;
46607;SDS011;32330;51.936;7.184;2023-06-10T09:36:34;6.30;;;3.63;;
46607;SDS011;32330;51.936;7.184;2023-06-10T09:39:02;4.72;;;2.92;;
46607;SDS011;32330;51.936;7.184;2023-06-10T09:41:32;4.82;;;3.05;;
46607;SDS011;32330;51.936;7.184;2023-06-10T09:44:00;4.70;;;3.53;;
46607;SDS011;32330;51.936;7.184;2023-06-10T09:46:31;4.00;;;3.40;;
46607;SDS011;32330;51.936;7.184;2023-06-10T09:48:59;6.20;;;3.67;;
46607;SDS011;32330;51.936;7.184;2023-06-10T09:51:26;6.85;;;3.25;;
46607;SDS011;32330;51.936;7.184;2023-06-10T09:53:53;7.07;;;3.88;;
46607;SDS011;32330;51.936;7.184;2023-06-10T09:56:20;6.78;;;3.60;;
46607;SDS011;32330;51.936;7.184;2023-06-10T09:58:49;3.92;;;3.40;;
46607;SDS011;32330;51.936;7.184;2023-06-10T10:01:19;4.78;;;3.05;;
46607;SDS011;32330;51.936;7.184;2023-06-10T10:03:48;4.82;;;3.28;;
46607;SDS011;32330;51.936;7.184;2023-06-10T10:06:18;5.38;;;2.88;;
46607;SDS011;32330;51.936;7.184;2023-06-10T10:08:47;6.47;;;3.30;;
46607;SDS011;32330;51.936;7.184;2023-06-10T10:11:16;5.57;;;3.15;;
46607;SDS011;32330;51.936;7.184;2023-06-10T10:13:45;3.88;;;3.05;;
46607;SDS011;32330;51.936;7.184;2023-06-10T10:16:14;4.45;;;3.00;;
46607;SDS011;32330;51.936;7.184;2023-06-10T10:18:43;5.13;;;3.22;;
46607;SDS011;32330;51.936;7.184;2023-06-10T10:21:17;4.63;;;3.30;;
46607;SDS011;32330;51.936;7.184;2023-06-10T10:23:50;4.57;;;2.75;;
46607;SDS011;32330;51.936;7.184;2023-06-10T10:26:21;4.10;;;3.03;;
46607;SDS011;32330;51.936;7.184;2023-06-10T10:28:51;6.30;;;2.90;;
46607;SDS011;32330;51.936;7.184;2023-06-10T10:31:24;7.75;;;3.28;;
46607;SDS011;32330;51.936;7.184;2023-06-10T10:33:57;3.05;;;2.45;;
46607;SDS011;32330;51.936;7.184;2023-06-10T10:36:27;6.43;;;3.13;;
46607;SDS011;32330;51.936;7.184;2023-06-10T10:38:54;7.72;;;3.08;;
46607;SDS011;32330;51.936;7.184;2023-06-10T10:41:22;5.05;;;3.22;;
46607;SDS011;32330;51.936;7.184;2023-06-10T10:43:51;4.97;;;2.85;;
46607;SDS011;32330;51.936;7.184;2023-06-10T10:46:19;6.53;;;3.08;;
46607;SDS011;32330;51.936;7.184;2023-06-10T10:48:49;4.03;;;2.97;;
46607;SDS011;32330;51.936;7.184;2023-06-10T10:51:19;4.30;;;2.83;;
46607;SDS011;32330;51.936;7.184;2023-06-10T10:56:39;5.72;;;3.33;;
46607;SDS011;32330;51.936;7.184;2023-06-10T10:59:26;4.30;;;3.38;;
46607;SDS011;32330;51.936;7.184;2023-06-10T11:02:38;4.30;;;2.70;;
46607;SDS011;32330;51.936;7.184;2023-06-10T11:05:08;4.50;;;2.75;;
46607;SDS011;32330;51.936;7.184;2023-06-10T11:07:37;3.60;;;3.30;;
46607;SDS011;32330;51.936;7.184;2023-06-10T11:10:07;5.50;;;2.95;;
46607;SDS011;32330;51.936;7.184;2023-06-10T11:12:42;5.55;;;3.40;;
46607;SDS011;32330;51.936;7.184;2023-06-10T11:15:18;7.88;;;3.15;;
46607;SDS011;32330;51.936;7.184;2023-06-10T11:20:50;4.53;;;3.45;;
46607;SDS011;32330;51.936;7.184;2023-06-10T11:23:29;3.65;;;2.97;;
46607;SDS011;32330;51.936;7.184;2023-06-10T11:29:03;5.78;;;3.13;;
46607;SDS011;32330;51.936;7.184;2023-06-10T11:31:38;3.80;;;3.03;;
46607;SDS011;32330;51.936;7.184;2023-06-10T11:34:10;5.78;;;3.25;;
46607;SDS011;32330;51.936;7.184;2023-06-10T11:40:52;6.72;;;3.03;;
46607;SDS011;32330;51.936;7.184;2023-06-10T11:43:21;5.95;;;3.25;;
46607;SDS011;32330;51.936;7.184;2023-06-10T11:45:53;4.70;;;2.95;;
46607;SDS011;32330;51.936;7.184;2023-06-10T11:48:20;4.45;;;3.03;;
46607;SDS011;32330;51.936;7.184;2023-06-10T11:50:47;4.95;;;3.28;;
46607;SDS011;32330;51.936;7.184;2023-06-10T11:53:15;4.88;;;3.17;;
46607;SDS011;32330;51.936;7.184;2023-06-10T11:55:43;5.22;;;3.22;;
46607;SDS011;32330;51.936;7.184;2023-06-10T11:58:12;5.57;;;3.67;;
46607;SDS011;32330;51.936;7.184;2023-06-10T12:00:45;7.68;;;3.25;;
46607;SDS011;32330;51.936;7.184;2023-06-10T12:03:13;6.85;;;3.45;;
46607;SDS011;32330;51.936;7.184;2023-06-10T12:05:40;3.58;;;3.00;;
46607;SDS011;32330;51.936;7.184;2023-06-10T12:08:19;6.75;;;3.67;;
46607;SDS011;32330;51.936;7.184;2023-06-10T12:10:46;5.50;;;3.80;;
46607;SDS011;32330;51.936;7.184;2023-06-10T12:13:13;4.95;;;3.92;;
46607;SDS011;32330;51.936;7.184;2023-06-10T12:15:41;4.60;;;3.10;;
46607;SDS011;32330;51.936;7.184;2023-06-10T12:18:09;5.88;;;3.35;;
46607;SDS011;32330;51.936;7.184;2023-06-10T12:20:42;5.93;;;3.10;;
46607;SDS011;32330;51.936;7.184;2023-06-10T12:23:10;4.22;;;3.40;;
46607;SDS011;32330;51.936;7.184;2023-06-10T12:25:37;4.57;;;2.88;;
46607;SDS011;32330;51.936;7.184;2023-06-10T12:28:05;5.75;;;3.67;;
46607;SDS011;32330;51.936;7.184;2023-06-10T12:30:32;5.45;;;3.13;;
46607;SDS011;32330;51.936;7.184;2023-06-10T12:32:59;5.40;;;3.40;;
46607;SDS011;32330;51.936;7.184;2023-06-10T12:35:28;3.97;;;3.15;;
46607;SDS011;32330;51.936;7.184;2023-06-10T12:37:55;5.82;;;3.53;;
46607;SDS011;32330;51.936;7.184;2023-06-10T12:40:28;4.10;;;3.37;;
46607;SDS011;32330;51.936;7.184;2023-06-10T12:42:56;5.47;;;3.22;;
46607;SDS011;32330;51.936;7.184;2023-06-10T12:45:26;5.88;;;3.50;;
46607;SDS011;32330;51.936;7.184;2023-06-10T12:48:03;3.85;;;3.25;;
46607;SDS011;32330;51.936;7.184;2023-06-10T12:50:34;7.90;;;3.40;;
46607;SDS011;32330;51.936;7.184;2023-06-10T12:53:02;3.88;;;3.40;;
46607;SDS011;32330;51.936;7.184;2023-06-10T12:55:29;6.20;;;3.35;;
46607;SDS011;32330;51.936;7.184;2023-06-10T12:57:56;3.85;;;3.13;;
46607;SDS011;32330;51.936;7.184;2023-06-10T13:00:23;7.22;;;3.45;;
46607;SDS011;32330;51.936;7.184;2023-06-10T13:02:54;4.97;;;3.38;;
46607;SDS011;32330;51.936;7.184;2023-06-10T13:05:21;10.13;;;3.63;;
46607;SDS011;32330;51.936;7.184;2023-06-10T13:07:50;4.55;;;3.55;;
46607;SDS011;32330;51.936;7.184;2023-06-10T13:10:17;5.53;;;3.42;;
46607;SDS011;32330;51.936;7.184;2023-06-10T13:12:44;4.97;;;3.35;;
46607;SDS011;32330;51.936;7.184;2023-06-10T13:15:12;4.53;;;3.25;;
46607;SDS011;32330;51.936;7.184;2023-06-10T13:17:39;3.22;;;2.92;;
46607;SDS011;32330;51.936;7.184;2023-06-10T13:20:07;8.07;;;3.30;;
46607;SDS011;32330;51.936;7.184;2023-06-10T13:22:35;5.07;;;3.28;;
46607;SDS011;32330;51.936;7.184;2023-06-10T13:25:04;4.82;;;3.70;;
46607;SDS011;32330;51.936;7.184;2023-06-10T13:27:32;4.53;;;3.80;;
46607;SDS011;32330;51.936;7.184;2023-06-10T13:29:59;7.13;;;4.00;;
46607;SDS011;32330;51.936;7.184;2023-06-10T13:32:26;5.05;;;3.60;;
46607;SDS011;32330;51.936;7.184;2023-06-10T13:34:53;3.58;;;3.28;;
46607;SDS011;32330;51.936;7.184;2023-06-10T13:37:22;4.72;;;3.53;;
46607;SDS011;32330;51.936;7.184;2023-06-10T13:39:49;4.82;;;3.58;;
46607;SDS011;32330;51.936;7.184;2023-06-10T13:42:18;5.18;;;3.90;;
46607;SDS011;32330;51.936;7.184;2023-06-10T13:44:45;4.60;;;3.50;;
46607;SDS011;32330;51.936;7.184;2023-06-10T13:47:13;7.07;;;3.58;;
46607;SDS011;32330;51.936;7.184;2023-06-10T13:49:40;4.55;;;3.35;;
46607;SDS011;32330;51.936;7.184;2023-06-10T13:52:08;4.00;;;3.45;;
46607;SDS011;32330;51.936;7.184;2023-06-10T13:54:35;3.88;;;3.10;;
46607;SDS011;32330;51.936;7.184;2023-06-10T13:57:02;6.68;;;3.75;;
46607;SDS011;32330;51.936;7.184;2023-06-10T13:59:31;5.53;;;3.28;;
46607;SDS011;32330;51.936;7.184;2023-06-10T14:01:58;4.30;;;3.38;;
46607;SDS011;32330;51.936;7.184;2023-06-10T14:04:25;4.68;;;3.78;;
46607;SDS011;32330;51.936;7.184;2023-06-10T14:06:55;11.25;;;3.17;;
46607;SDS011;32330;51.936;7.184;2023-06-10T14:11:49;5.75;;;3.42;;
46607;SDS011;32330;51.936;7.184;2023-06-10T14:14:17;5.53;;;3.75;;
46607;SDS011;32330;51.936;7.184;2023-06-10T14:16:45;5.05;;;3.25;;
46607;SDS011;32330;51.936;7.184;2023-06-10T14:19:13;4.40;;;3.20;;
46607;SDS011;32330;51.936;7.184;2023-06-10T14:21:42;4.53;;;3.92;;
46607;SDS011;32330;51.936;7.184;2023-06-10T14:24:10;5.25;;;3.40;;
46607;SDS011;32330;51.936;7.184;2023-06-10T14:26:37;5.07;;;3.60;;
46607;SDS011;32330;51.936;7.184;2023-06-10T14:29:04;5.72;;;3.38;;
46607;SDS011;32330;51.936;7.184;2023-06-10T14:31:32;6.85;;;3.85;;
46607;SDS011;32330;51.936;7.184;2023-06-10T14:34:00;4.47;;;3.38;;
46607;SDS011;32330;51.936;7.184;2023-06-10T14:36:28;5.50;;;3.22;;
46607;SDS011;32330;51.936;7.184;2023-06-10T14:38:55;6.13;;;3.25;;
46607;SDS011;32330;51.936;7.184;2023-06-10T14:41:22;6.03;;;3.20;;
46607;SDS011;32330;51.936;7.184;2023-06-10T14:43:50;4.53;;;3.45;;
46607;SDS011;32330;51.936;7.184;2023-06-10T14:46:17;6.63;;;3.22;;
46607;SDS011;32330;51.936;7.184;2023-06-10T14:48:47;5.32;;;3.40;;
46607;SDS011;32330;51.936;7.184;2023-06-10T14:51:16;5.63;;;3.55;;
46607;SDS011;32330;51.936;7.184;2023-06-10T14:53:43;6.65;;;3.60;;
46607;SDS011;32330;51.936;7.184;2023-06-10T14:56:10;8.23;;;4.30;;
46607;SDS011;32330;51.936;7.184;2023-06-10T14:58:37;4.43;;;3.58;;
46607;SDS011;32330;51.936;7.184;2023-06-10T15:01:04;5.35;;;3.60;;
46607;SDS011;32330;51.936;7.184;2023-06-10T15:03:31;6.40;;;4.05;;
46607;SDS011;32330;51.936;7.184;2023-06-10T15:05:59;3.83;;;3.47;;
46607;SDS011;32330;51.936;7.184;2023-06-10T15:08:27;4.97;;;3.30;;
46607;SDS011;32330;51.936;7.184;2023-06-10T15:10:54;3.90;;;3.50;;
46607;SDS011;32330;51.936;7.184;2023-06-10T15:13:22;4.93;;;3.60;;
46607;SDS011;32330;51.936;7.184;2023-06-10T15:15:49;4.63;;;3.80;;
46607;SDS011;32330;51.936;7.184;2023-06-10T15:18:16;4.93;;;3.90;;
46607;SDS011;32330;51.936;7.184;2023-06-10T15:20:43;3.92;;;3.08;;
46607;SDS011;32330;51.936;7.184;2023-06-10T15:23:10;4.38;;;3.00;;
46607;SDS011;32330;51.936;7.184;2023-06-10T15:25:39;3.67;;;3.35;;
46607;SDS011;32330;51.936;7.184;2023-06-10T15:28:07;7.70;;;5.03;;
46607;SDS011;32330;51.936;7.184;2023-06-10T15:30:34;5.32;;;3.88;;
46607;SDS011;32330;51.936;7.184;2023-06-10T15:33:02;5.35;;;3.80;;
46607;SDS011;32330;51.936;7.184;2023-06-10T15:35:31;5.25;;;3.78;;
46607;SDS011;32330;51.936;7.184;2023-06-10T15:37:58;4.90;;;3.70;;
46607;SDS011;32330;51.936;7.184;2023-06-10T15:40:25;4.25;;;3.40;;
46607;SDS011;32330;51.936;7.184;2023-06-10T15:42:54;4.70;;;3.78;;
46607;SDS011;32330;51.936;7.184;2023-06-10T15:45:21;4.35;;;3.72;;
46607;SDS011;32330;51.936;7.184;2023-06-10T15:47:48;3.78;;;3.15;;
46607;SDS011;32330;51.936;7.184;2023-06-10T15:50:15;4.95;;;3.53;;
46607;SDS011;32330;51.936;7.184;2023-06-10T15:52:42;4.35;;;3.30;;
46607;SDS011;32330;51.936;7.184;2023-06-10T15:55:09;4.28;;;3.45;;
46607;SDS011;32330;51.936;7.184;2023-06-10T15:57:36;8.63;;;4.13;;
46607;SDS011;32330;51.936;7.184;2023-06-10T16:00:05;5.32;;;3.80;;
46607;SDS011;32330;51.936;7.184;2023-06-10T16:02:33;5.68;;;3.38;;
46607;SDS011;32330;51.936;7.184;2023-06-10T16:05:00;4.93;;;3.78;;
46607;SDS011;32330;51.936;7.184;2023-06-10T16:07:28;3.90;;;3.50;;
46607;SDS011;32330;51.936;7.184;2023-06-10T16:09:55;6.07;;;3.60;;
46607;SDS011;32330;51.936;7.184;2023-06-10T16:12:22;6.85;;;3.83;;
46607;SDS011;32330;51.936;7.184;2023-06-10T16:14:49;8.13;;;3.63;;
46607;SDS011;32330;51.936;7.184;2023-06-10T16:17:18;4.60;;;3.70;;
46607;SDS011;32330;51.936;7.184;2023-06-10T16:19:45;4.22;;;3.50;;
46607;SDS011;32330;51.936;7.184;2023-06-10T16:22:12;5.05;;;4.15;;
46607;SDS011;32330;51.936;7.184;2023-06-10T16:24:39;6.60;;;3.60;;
46607;SDS011;32330;51.936;7.184;2023-06-10T16:27:06;4.25;;;3.70;;
46607;SDS011;32330;51.936;7.184;2023-06-10T16:29:33;4.40;;;3.55;;
46607;SDS011;32330;51.936;7.184;2023-06-10T16:32:00;3.83;;;3.33;;
46607;SDS011;32330;51.936;7.184;2023-06-10T16:34:28;5.38;;;3.67;;
46607;SDS011;32330;51.936;7.184;2023-06-10T16:36:55;6.60;;;4.50;;
46607;SDS011;32330;51.936;7.184;2023-06-10T16:39:23;6.32;;;3.70;;
46607;SDS011;32330;51.936;7.184;2023-06-10T16:41:50;6.93;;;4.15;;
46607;SDS011;32330;51.936;7.184;2023-06-10T16:44:17;10.52;;;4.05;;
46607;SDS011;32330;51.936;7.184;2023-06-10T16:46:44;7.93;;;3.53;;
46607;SDS011;32330;51.936;7.184;2023-06-10T16:49:11;5.47;;;3.90;;
46607;SDS011;32330;51.936;7.184;2023-06-10T16:51:39;5.28;;;3.72;;
46607;SDS011;32330;51.936;7.184;2023-06-10T16:54:06;4.32;;;3.70;;
46607;SDS011;32330;51.936;7.184;2023-06-10T16:56:33;6.38;;;3.53;;
46607;SDS011;32330;51.936;7.184;2023-06-10T16:59:01;4.47;;;3.70;;
46607;SDS011;32330;51.936;7.184;2023-06-10T17:01:28;5.90;;;3.35;;
46607;SDS011;32330;51.936;7.184;2023-06-10T17:03:55;5.95;;;3.75;;
46607;SDS011;32330;51.936;7.184;2023-06-10T17:06:22;7.97;;;3.58;;
46607;SDS011;32330;51.936;7.184;2023-06-10T17:08:50;6.93;;;3.63;;
46607;SDS011;32330;51.936;7.184;2023-06-10T17:11:18;5.03;;;3.38;;
46607;SDS011;32330;51.936;7.184;2023-06-10T17:13:46;4.32;;;3.75;;
46607;SDS011;32330;51.936;7.184;2023-06-10T17:16:13;7.78;;;3.63;;
46607;SDS011;32330;51.936;7.184;2023-06-10T17:18:41;5.95;;;3.75;;
46607;SDS011;32330;51.936;7.184;2023-06-10T17:21:08;5.45;;;3.92;;
46607;SDS011;32330;51.936;7.184;2023-06-10T17:23:35;4.93;;;4.32;;
46607;SDS011;32330;51.936;7.184;2023-06-10T17:26:03;4.65;;;3.55;;
46607;SDS011;32330;51.936;7.184;2023-06-10T17:28:30;5.53;;;4.00;;
46607;SDS011;32330;51.936;7.184;2023-06-10T17:30:57;4.22;;;3.63;;
46607;SDS011;32330;51.936;7.184;2023-06-10T17:33:24;4.05;;;3.63;;
46607;SDS011;32330;51.936;7.184;2023-06-10T17:35:51;4.50;;;3.40;;
46607;SDS011;32330;51.936;7.184;2023-06-10T17:38:18;5.57;;;3.65;;
46607;SDS011;32330;51.936;7.184;2023-06-10T17:40:47;7.45;;;3.65;;
46607;SDS011;32330;51.936;7.184;2023-06-10T17:43:15;4.82;;;3.50;;
46607;SDS011;32330;51.936;7.184;2023-06-10T17:45:42;4.70;;;3.53;;
46607;SDS011;32330;51.936;7.184;2023-06-10T17:48:10;6.32;;;3.72;;
46607;SDS011;32330;51.936;7.184;2023-06-10T17:50:37;4.32;;;3.53;;
46607;SDS011;32330;51.936;7.184;2023-06-10T17:53:04;6.35;;;3.80;;
46607;SDS011;32330;51.936;7.184;2023-06-10T17:55:31;11.52;;;4.28;;
46607;SDS011;32330;51.936;7.184;2023-06-10T17:57:58;5.25;;;3.42;;
46607;SDS011;32330;51.936;7.184;2023-06-10T18:00:26;8.27;;;3.72;;
46607;SDS011;32330;51.936;7.184;2023-06-10T18:02:53;5.03;;;3.72;;
46607;SDS011;32330;51.936;7.184;2023-06-10T18:05:20;5.38;;;3.80;;
46607;SDS011;32330;51.936;7.184;2023-06-10T18:07:47;4.72;;;3.45;;
46607;SDS011;32330;51.936;7.184;2023-06-10T18:10:14;5.40;;;3.53;;
46607;SDS011;32330;51.936;7.184;2023-06-10T18:12:42;4.15;;;3.67;;
46607;SDS011;32330;51.936;7.184;2023-06-10T18:15:09;5.40;;;4.25;;
46607;SDS011;32330;51.936;7.184;2023-06-10T18:17:37;5.40;;;4.25;;
46607;SDS011;32330;51.936;7.184;2023-06-10T18:20:05;5.45;;;3.53;;
46607;SDS011;32330;51.936;7.184;2023-06-10T18:22:33;4.90;;;4.03;;
46607;SDS011;32330;51.936;7.184;2023-06-10T18:25:00;5.40;;;3.72;;
46607;SDS011;32330;51.936;7.184;2023-06-10T18:27:30;5.25;;;3.78;;
46607;SDS011;32330;51.936;7.184;2023-06-10T18:29:57;5.53;;;4.22;;
46607;SDS011;32330;51.936;7.184;2023-06-10T18:32:24;4.20;;;3.50;;
46607;SDS011;32330;51.936;7.184;2023-06-10T18:34:52;5.75;;;3.53;;
46607;SDS011;32330;51.936;7.184;2023-06-10T18:37:19;8.27;;;3.72;;
46607;SDS011;32330;51.936;7.184;2023-06-10T18:39:46;7.25;;;4.68;;
46607;SDS011;32330;51.936;7.184;2023-06-10T18:42:14;5.80;;;4.40;;
46607;SDS011;32330;51.936;7.184;2023-06-10T18:44:41;8.73;;;4.50;;
46607;SDS011;32330;51.936;7.184;2023-06-10T18:47:08;9.15;;;4.05;;
46607;SDS011;32330;51.936;7.184;2023-06-10T18:49:35;5.60;;;4.18;;
46607;SDS011;32330;51.936;7.184;2023-06-10T18:52:04;5.35;;;4.13;;
46607;SDS011;32330;51.936;7.184;2023-06-10T18:54:33;4.75;;;3.95;;